sensor_id;sensor_type;location;lat;lon;timestamp;temperature;humidity
18454;DHT22;9356;52.202;20.950;2022-12-18T00:00:03;-2.30;99.90
18454;DHT22;9356;52.202;20.950;2022-12-18T00:01:17;-2.30;99.90
18454;DHT22;9356;52.202;20.950;2022-12-18T00:02:20;-2.30;99.90
18454;DHT22;9356;52.202;20.950;2022-12-18T00:03:24;-2.30;99.90
18454;DHT22;9356;52.202;20.950;2022-12-18T00:04:31;-2.30;99.90
18454;DHT22;9356;52.202;20.950;2022-12-18T00:05:46;-0.60;99.90
18454;DHT22;9356;52.202;20.950;2022-12-18T00:06:50;-2.30;99.90
18454;DHT22;9356;52.202;20.950;2022-12-18T00:07:54;-2.20;99.90
18454;DHT22;9356;52.202;20.950;2022-12-18T00:08:59;-2.20;99.90
18454;DHT22;9356;52.202;20.950;2022-12-18T00:10:03;-2.30;99.90
18454;DHT22;9356;52.202;20.950;2022-12-18T00:11:10;-2.10;99.90
18454;DHT22;9356;52.202;20.950;2022-12-18T00:12:15;-2.10;99.90
18454;DHT22;9356;52.202;20.950;2022-12-18T00:13:19;-2.10;99.90
18454;DHT22;9356;52.202;20.950;2022-12-18T00:14:22;-2.10;99.90
18454;DHT22;9356;52.202;20.950;2022-12-18T00:15:25;-2.10;99.90
18454;DHT22;9356;52.202;20.950;2022-12-18T00:16:30;-2.10;99.90
18454;DHT22;9356;52.202;20.950;2022-12-18T00:17:35;-2.10;99.90
18454;DHT22;9356;52.202;20.950;2022-12-18T00:18:39;-0.20;99.90
18454;DHT22;9356;52.202;20.950;2022-12-18T00:19:48;-2.00;99.90
18454;DHT22;9356;52.202;20.950;2022-12-18T00:20:51;-2.00;99.90
18454;DHT22;9356;52.202;20.950;2022-12-18T00:21:54;-1.90;99.90
18454;DHT22;9356;52.202;20.950;2022-12-18T00:23:01;-1.40;99.90
18454;DHT22;9356;52.202;20.950;2022-12-18T00:24:05;-1.80;99.90
18454;DHT22;9356;52.202;20.950;2022-12-18T00:25:08;-1.90;99.90
18454;DHT22;9356;52.202;20.950;2022-12-18T00:26:14;-1.90;99.90
18454;DHT22;9356;52.202;20.950;2022-12-18T00:27:18;-3.00;99.90
18454;DHT22;9356;52.202;20.950;2022-12-18T00:28:22;0.00;99.90
18454;DHT22;9356;52.202;20.950;2022-12-18T00:29:26;-0.90;99.90
18454;DHT22;9356;52.202;20.950;2022-12-18T00:30:32;-1.90;99.90
18454;DHT22;9356;52.202;20.950;2022-12-18T00:31:36;-0.10;99.90
18454;DHT22;9356;52.202;20.950;2022-12-18T00:32:40;-0.30;99.90
18454;DHT22;9356;52.202;20.950;2022-12-18T00:33:43;0.00;99.90
18454;DHT22;9356;52.202;20.950;2022-12-18T00:34:48;-1.90;99.90
18454;DHT22;9356;52.202;20.950;2022-12-18T00:36:00;-1.90;99.90
18454;DHT22;9356;52.202;20.950;2022-12-18T00:37:04;-1.90;99.90
18454;DHT22;9356;52.202;20.950;2022-12-18T00:38:07;-1.80;99.90
18454;DHT22;9356;52.202;20.950;2022-12-18T00:39:11;-1.90;99.90
18454;DHT22;9356;52.202;20.950;2022-12-18T00:40:14;-1.80;99.90
18454;DHT22;9356;52.202;20.950;2022-12-18T00:41:18;-1.80;99.90
18454;DHT22;9356;52.202;20.950;2022-12-18T00:42:37;-1.80;99.90
18454;DHT22;9356;52.202;20.950;2022-12-18T00:43:58;-1.80;99.90
18454;DHT22;9356;52.202;20.950;2022-12-18T00:45:01;-1.70;99.90
18454;DHT22;9356;52.202;20.950;2022-12-18T00:46:14;-1.60;99.90
18454;DHT22;9356;52.202;20.950;2022-12-18T00:47:22;-1.70;99.90
18454;DHT22;9356;52.202;20.950;2022-12-18T00:48:30;-1.80;99.90
18454;DHT22;9356;52.202;20.950;2022-12-18T00:49:33;-1.50;99.90
18454;DHT22;9356;52.202;20.950;2022-12-18T00:50:37;0.40;99.90
18454;DHT22;9356;52.202;20.950;2022-12-18T00:51:39;-0.90;99.90
18454;DHT22;9356;52.202;20.950;2022-12-18T00:52:43;-1.80;99.90
18454;DHT22;9356;52.202;20.950;2022-12-18T00:53:46;-1.70;99.90
18454;DHT22;9356;52.202;20.950;2022-12-18T00:54:59;-1.70;99.90
18454;DHT22;9356;52.202;20.950;2022-12-18T00:56:07;-1.70;99.90
18454;DHT22;9356;52.202;20.950;2022-12-18T00:57:11;-1.40;99.90
18454;DHT22;9356;52.202;20.950;2022-12-18T00:58:17;-1.00;99.90
18454;DHT22;9356;52.202;20.950;2022-12-18T00:59:20;-1.70;99.90
18454;DHT22;9356;52.202;20.950;2022-12-18T01:00:25;0.30;99.90
18454;DHT22;9356;52.202;20.950;2022-12-18T01:01:28;-2.00;99.90
18454;DHT22;9356;52.202;20.950;2022-12-18T01:02:31;-1.10;99.90
18454;DHT22;9356;52.202;20.950;2022-12-18T01:03:35;-1.70;99.90
18454;DHT22;9356;52.202;20.950;2022-12-18T01:04:38;-1.60;99.90
18454;DHT22;9356;52.202;20.950;2022-12-18T01:05:42;-1.70;99.90
18454;DHT22;9356;52.202;20.950;2022-12-18T01:06:46;-1.70;99.90
18454;DHT22;9356;52.202;20.950;2022-12-18T01:07:49;-1.70;99.90
18454;DHT22;9356;52.202;20.950;2022-12-18T01:08:53;-1.80;99.90
18454;DHT22;9356;52.202;20.950;2022-12-18T01:10:04;-2.00;99.90
18454;DHT22;9356;52.202;20.950;2022-12-18T01:11:11;-2.00;99.90
18454;DHT22;9356;52.202;20.950;2022-12-18T01:12:16;-2.00;99.90
18454;DHT22;9356;52.202;20.950;2022-12-18T01:13:19;-1.60;99.90
18454;DHT22;9356;52.202;20.950;2022-12-18T01:14:25;0.10;99.90
18454;DHT22;9356;52.202;20.950;2022-12-18T01:15:27;-1.80;99.90
18454;DHT22;9356;52.202;20.950;2022-12-18T01:16:31;-1.80;99.90
18454;DHT22;9356;52.202;20.950;2022-12-18T01:17:34;-1.70;99.90
18454;DHT22;9356;52.202;20.950;2022-12-18T01:18:38;-1.70;99.90
18454;DHT22;9356;52.202;20.950;2022-12-18T01:19:42;-1.70;99.90
18454;DHT22;9356;52.202;20.950;2022-12-18T01:20:45;0.30;99.90
18454;DHT22;9356;52.202;20.950;2022-12-18T01:21:48;-1.60;99.90
18454;DHT22;9356;52.202;20.950;2022-12-18T01:22:51;-1.60;99.90
18454;DHT22;9356;52.202;20.950;2022-12-18T01:23:56;-1.60;99.90
18454;DHT22;9356;52.202;20.950;2022-12-18T01:24:59;-1.80;99.90
18454;DHT22;9356;52.202;20.950;2022-12-18T01:26:07;-1.60;99.90
18454;DHT22;9356;52.202;20.950;2022-12-18T01:27:11;-1.60;99.90
18454;DHT22;9356;52.202;20.950;2022-12-18T01:28:19;-1.50;99.90
18454;DHT22;9356;52.202;20.950;2022-12-18T01:29:27;-1.60;99.90
18454;DHT22;9356;52.202;20.950;2022-12-18T01:30:29;-2.10;99.90
18454;DHT22;9356;52.202;20.950;2022-12-18T01:31:34;0.30;99.90
18454;DHT22;9356;52.202;20.950;2022-12-18T01:32:40;-1.20;99.90
18454;DHT22;9356;52.202;20.950;2022-12-18T01:33:44;-1.60;99.90
18454;DHT22;9356;52.202;20.950;2022-12-18T01:34:46;0.10;99.90
18454;DHT22;9356;52.202;20.950;2022-12-18T01:35:50;-0.40;99.90
18454;DHT22;9356;52.202;20.950;2022-12-18T01:36:53;-1.70;99.90
18454;DHT22;9356;52.202;20.950;2022-12-18T01:37:56;0.40;99.90
18454;DHT22;9356;52.202;20.950;2022-12-18T01:39:00;-0.60;99.90
18454;DHT22;9356;52.202;20.950;2022-12-18T01:40:06;-1.70;99.90
18454;DHT22;9356;52.202;20.950;2022-12-18T01:41:09;-1.50;99.90
18454;DHT22;9356;52.202;20.950;2022-12-18T01:42:14;-2.00;99.90
18454;DHT22;9356;52.202;20.950;2022-12-18T01:43:18;0.10;99.90
18454;DHT22;9356;52.202;20.950;2022-12-18T01:45:01;-1.80;99.90
18454;DHT22;9356;52.202;20.950;2022-12-18T01:46:05;-1.70;99.90
18454;DHT22;9356;52.202;20.950;2022-12-18T01:47:09;-1.70;99.90
18454;DHT22;9356;52.202;20.950;2022-12-18T01:48:16;-1.80;99.90
18454;DHT22;9356;52.202;20.950;2022-12-18T01:49:18;0.30;99.90
18454;DHT22;9356;52.202;20.950;2022-12-18T01:50:30;-1.80;99.90
18454;DHT22;9356;52.202;20.950;2022-12-18T01:51:33;-1.80;99.90
18454;DHT22;9356;52.202;20.950;2022-12-18T01:52:37;-1.80;99.90
18454;DHT22;9356;52.202;20.950;2022-12-18T01:53:44;-1.80;99.90
18454;DHT22;9356;52.202;20.950;2022-12-18T01:54:51;-1.80;99.90
18454;DHT22;9356;52.202;20.950;2022-12-18T01:55:57;-1.90;99.90
18454;DHT22;9356;52.202;20.950;2022-12-18T01:57:01;-2.00;99.90
18454;DHT22;9356;52.202;20.950;2022-12-18T01:58:04;-2.10;99.90
18454;DHT22;9356;52.202;20.950;2022-12-18T01:59:11;-2.00;99.90
18454;DHT22;9356;52.202;20.950;2022-12-18T02:00:18;-2.00;99.90
18454;DHT22;9356;52.202;20.950;2022-12-18T02:01:23;-1.00;99.90
18454;DHT22;9356;52.202;20.950;2022-12-18T02:02:28;-1.90;99.90
18454;DHT22;9356;52.202;20.950;2022-12-18T07:07:56;-1.70;99.90
18454;DHT22;9356;52.202;20.950;2022-12-18T11:39:39;0.70;98.50
18454;DHT22;9356;52.202;20.950;2022-12-18T11:40:49;1.40;98.70
18454;DHT22;9356;52.202;20.950;2022-12-18T11:41:57;0.20;98.00
18454;DHT22;9356;52.202;20.950;2022-12-18T11:43:19;0.10;98.10
18454;DHT22;9356;52.202;20.950;2022-12-18T11:46:47;0.10;98.20
18454;DHT22;9356;52.202;20.950;2022-12-18T12:19:24;0.70;95.90
18454;DHT22;9356;52.202;20.950;2022-12-18T12:20:44;1.10;96.30
18454;DHT22;9356;52.202;20.950;2022-12-18T12:21:58;1.30;96.30
18454;DHT22;9356;52.202;20.950;2022-12-18T12:23:14;1.40;96.40
18454;DHT22;9356;52.202;20.950;2022-12-18T12:24:32;0.60;96.10
18454;DHT22;9356;52.202;20.950;2022-12-18T12:25:48;0.50;96.00
18454;DHT22;9356;52.202;20.950;2022-12-18T12:27:05;0.90;96.40
18454;DHT22;9356;52.202;20.950;2022-12-18T12:28:24;2.00;96.60
18454;DHT22;9356;52.202;20.950;2022-12-18T12:29:46;0.50;96.40
18454;DHT22;9356;52.202;20.950;2022-12-18T12:31:03;0.70;96.90
18454;DHT22;9356;52.202;20.950;2022-12-18T12:32:22;0.60;97.30
18454;DHT22;9356;52.202;20.950;2022-12-18T12:33:39;1.60;97.50
18454;DHT22;9356;52.202;20.950;2022-12-18T12:34:55;1.10;97.00
18454;DHT22;9356;52.202;20.950;2022-12-18T12:36:22;1.80;97.40
18454;DHT22;9356;52.202;20.950;2022-12-18T12:37:40;0.70;97.10
18454;DHT22;9356;52.202;20.950;2022-12-18T12:38:53;1.50;97.20
18454;DHT22;9356;52.202;20.950;2022-12-18T12:40:02;0.60;97.10
18454;DHT22;9356;52.202;20.950;2022-12-18T12:41:31;0.60;97.10
18454;DHT22;9356;52.202;20.950;2022-12-18T12:43:20;0.60;97.00
18454;DHT22;9356;52.202;20.950;2022-12-18T12:44:30;0.50;97.30
18454;DHT22;9356;52.202;20.950;2022-12-18T12:45:40;0.50;97.60
18454;DHT22;9356;52.202;20.950;2022-12-18T12:46:51;0.70;97.40
18454;DHT22;9356;52.202;20.950;2022-12-18T12:48:02;0.40;97.10
18454;DHT22;9356;52.202;20.950;2022-12-18T12:49:14;0.50;97.30
18454;DHT22;9356;52.202;20.950;2022-12-18T12:50:20;1.60;97.60
18454;DHT22;9356;52.202;20.950;2022-12-18T12:51:28;1.80;97.70
18454;DHT22;9356;52.202;20.950;2022-12-18T12:52:35;0.50;97.30
18454;DHT22;9356;52.202;20.950;2022-12-18T12:53:41;0.50;97.30
18454;DHT22;9356;52.202;20.950;2022-12-18T12:54:48;0.60;97.40
18454;DHT22;9356;52.202;20.950;2022-12-18T12:55:53;0.40;97.40
18454;DHT22;9356;52.202;20.950;2022-12-18T12:57:05;3.40;98.40
18454;DHT22;9356;52.202;20.950;2022-12-18T12:58:17;0.50;97.60
18454;DHT22;9356;52.202;20.950;2022-12-18T12:59:34;0.30;97.50
18454;DHT22;9356;52.202;20.950;2022-12-18T13:00:49;0.20;97.30
18454;DHT22;9356;52.202;20.950;2022-12-18T13:02:03;0.80;97.80
18454;DHT22;9356;52.202;20.950;2022-12-18T13:03:15;0.20;97.80
18454;DHT22;9356;52.202;20.950;2022-12-18T13:04:30;-0.20;97.50
18454;DHT22;9356;52.202;20.950;2022-12-18T13:05:43;0.40;97.70
18454;DHT22;9356;52.202;20.950;2022-12-18T13:07:00;-1.00;97.50
18454;DHT22;9356;52.202;20.950;2022-12-18T13:08:07;0.00;98.30
18454;DHT22;9356;52.202;20.950;2022-12-18T13:09:10;0.20;98.30
18454;DHT22;9356;52.202;20.950;2022-12-18T13:10:26;1.00;98.30
18454;DHT22;9356;52.202;20.950;2022-12-18T13:11:39;-0.10;97.80
18454;DHT22;9356;52.202;20.950;2022-12-18T13:13:04;1.30;98.60
18454;DHT22;9356;52.202;20.950;2022-12-18T13:14:23;-0.20;98.20
18454;DHT22;9356;52.202;20.950;2022-12-18T13:15:37;-1.10;97.70
18454;DHT22;9356;52.202;20.950;2022-12-18T13:16:42;-0.10;98.10
18454;DHT22;9356;52.202;20.950;2022-12-18T13:17:46;1.40;98.60
18454;DHT22;9356;52.202;20.950;2022-12-18T13:18:50;-0.30;98.20
18454;DHT22;9356;52.202;20.950;2022-12-18T13:20:06;-0.20;98.10
18454;DHT22;9356;52.202;20.950;2022-12-18T13:21:28;-0.30;98.00
18454;DHT22;9356;52.202;20.950;2022-12-18T13:22:37;-0.50;98.10
18454;DHT22;9356;52.202;20.950;2022-12-18T13:23:40;-0.30;98.30
18454;DHT22;9356;52.202;20.950;2022-12-18T13:24:45;-0.40;98.20
18454;DHT22;9356;52.202;20.950;2022-12-18T13:25:49;-1.40;98.40
18454;DHT22;9356;52.202;20.950;2022-12-18T13:26:54;-0.60;98.40
18454;DHT22;9356;52.202;20.950;2022-12-18T13:28:06;-0.60;98.70
18454;DHT22;9356;52.202;20.950;2022-12-18T13:29:10;-3.10;98.40
18454;DHT22;9356;52.202;20.950;2022-12-18T13:30:46;-0.20;99.90
18454;DHT22;9356;52.202;20.950;2022-12-18T13:32:18;-0.20;99.60
18454;DHT22;9356;52.202;20.950;2022-12-18T13:33:43;-0.10;99.20
18454;DHT22;9356;52.202;20.950;2022-12-18T13:35:37;-0.50;99.10
18454;DHT22;9356;52.202;20.950;2022-12-18T13:36:41;-1.80;98.40
18454;DHT22;9356;52.202;20.950;2022-12-18T13:37:52;0.10;98.70
18454;DHT22;9356;52.202;20.950;2022-12-18T13:39:22;0.00;98.70
18454;DHT22;9356;52.202;20.950;2022-12-18T13:40:54;0.00;98.50
18454;DHT22;9356;52.202;20.950;2022-12-18T13:42:37;0.10;98.60
18454;DHT22;9356;52.202;20.950;2022-12-18T13:44:11;0.00;98.40
18454;DHT22;9356;52.202;20.950;2022-12-18T13:45:41;-0.30;98.30
18454;DHT22;9356;52.202;20.950;2022-12-18T13:46:51;2.00;99.00
18454;DHT22;9356;52.202;20.950;2022-12-18T13:49:03;-0.20;98.50
18454;DHT22;9356;52.202;20.950;2022-12-18T13:50:17;-0.30;98.70
18454;DHT22;9356;52.202;20.950;2022-12-18T13:51:27;0.00;98.90
18454;DHT22;9356;52.202;20.950;2022-12-18T13:52:37;0.00;99.00
18454;DHT22;9356;52.202;20.950;2022-12-18T13:53:46;-0.70;98.90
18454;DHT22;9356;52.202;20.950;2022-12-18T13:56:05;-0.40;99.00
18454;DHT22;9356;52.202;20.950;2022-12-18T13:57:27;0.00;99.10
18454;DHT22;9356;52.202;20.950;2022-12-18T13:58:36;-0.60;99.10
18454;DHT22;9356;52.202;20.950;2022-12-18T13:59:40;-0.70;99.00
18454;DHT22;9356;52.202;20.950;2022-12-18T14:00:44;-0.70;99.10
18454;DHT22;9356;52.202;20.950;2022-12-18T14:01:52;-0.60;99.20
18454;DHT22;9356;52.202;20.950;2022-12-18T14:02:58;-0.60;99.30
18454;DHT22;9356;52.202;20.950;2022-12-18T14:04:12;-0.80;99.60
18454;DHT22;9356;52.202;20.950;2022-12-18T14:05:22;-0.70;99.30
18454;DHT22;9356;52.202;20.950;2022-12-18T14:06:27;-0.70;99.30
18454;DHT22;9356;52.202;20.950;2022-12-18T14:07:34;-0.70;99.30
18454;DHT22;9356;52.202;20.950;2022-12-18T14:08:49;-0.70;99.30
18454;DHT22;9356;52.202;20.950;2022-12-18T14:09:55;1.20;99.90
18454;DHT22;9356;52.202;20.950;2022-12-18T14:11:23;-1.30;99.10
18454;DHT22;9356;52.202;20.950;2022-12-18T14:12:31;-0.80;99.70
18454;DHT22;9356;52.202;20.950;2022-12-18T14:13:58;-0.90;99.70
18454;DHT22;9356;52.202;20.950;2022-12-18T14:15:02;-0.90;99.90
18454;DHT22;9356;52.202;20.950;2022-12-18T14:16:14;-0.90;99.70
18454;DHT22;9356;52.202;20.950;2022-12-18T14:17:20;-0.90;99.90
18454;DHT22;9356;52.202;20.950;2022-12-18T14:18:26;-1.00;99.70
18454;DHT22;9356;52.202;20.950;2022-12-18T14:19:34;-0.60;99.90
18454;DHT22;9356;52.202;20.950;2022-12-18T14:20:43;-0.90;99.90
18454;DHT22;9356;52.202;20.950;2022-12-18T14:21:53;-0.80;99.90
18454;DHT22;9356;52.202;20.950;2022-12-18T14:24:13;-0.70;99.90
18454;DHT22;9356;52.202;20.950;2022-12-18T14:25:23;-1.00;99.90
18454;DHT22;9356;52.202;20.950;2022-12-18T14:26:29;-0.70;99.90
18454;DHT22;9356;52.202;20.950;2022-12-18T14:27:38;-0.80;99.90
18454;DHT22;9356;52.202;20.950;2022-12-18T14:28:44;-1.00;99.70
18454;DHT22;9356;52.202;20.950;2022-12-18T14:30:53;-0.90;99.90
18454;DHT22;9356;52.202;20.950;2022-12-18T14:32:21;-0.40;99.90
18454;DHT22;9356;52.202;20.950;2022-12-18T14:33:27;-0.90;99.90
18454;DHT22;9356;52.202;20.950;2022-12-18T14:34:30;-0.70;99.90
18454;DHT22;9356;52.202;20.950;2022-12-18T14:38:18;-1.00;99.30
18454;DHT22;9356;52.202;20.950;2022-12-18T14:43:45;-0.90;99.50
18454;DHT22;9356;52.202;20.950;2022-12-18T14:44:49;-0.50;99.50
18454;DHT22;9356;52.202;20.950;2022-12-18T14:49:44;-0.90;99.50
18454;DHT22;9356;52.202;20.950;2022-12-18T14:50:58;-1.10;99.30
18454;DHT22;9356;52.202;20.950;2022-12-18T14:54:25;-1.40;99.10
18454;DHT22;9356;52.202;20.950;2022-12-18T14:55:29;-1.30;99.40
18454;DHT22;9356;52.202;20.950;2022-12-18T14:56:35;-1.70;99.40
18454;DHT22;9356;52.202;20.950;2022-12-18T14:57:39;-3.70;99.00
18454;DHT22;9356;52.202;20.950;2022-12-18T14:58:49;-1.40;99.70
18454;DHT22;9356;52.202;20.950;2022-12-18T15:00:04;-1.70;99.70
18454;DHT22;9356;52.202;20.950;2022-12-18T15:01:21;-1.70;99.70
18454;DHT22;9356;52.202;20.950;2022-12-18T15:02:27;-1.40;99.90
18454;DHT22;9356;52.202;20.950;2022-12-18T15:04:38;-1.40;99.90
18454;DHT22;9356;52.202;20.950;2022-12-18T15:05:46;-1.40;99.70
18454;DHT22;9356;52.202;20.950;2022-12-18T15:07:07;-0.70;99.90
18454;DHT22;9356;52.202;20.950;2022-12-18T15:08:29;-1.20;99.90
18454;DHT22;9356;52.202;20.950;2022-12-18T15:09:32;-0.60;99.90
18454;DHT22;9356;52.202;20.950;2022-12-18T15:10:47;-0.80;99.90
18454;DHT22;9356;52.202;20.950;2022-12-18T15:11:56;-0.40;99.90
18454;DHT22;9356;52.202;20.950;2022-12-18T15:13:09;-0.60;99.90
18454;DHT22;9356;52.202;20.950;2022-12-18T15:14:40;-0.50;99.90
18454;DHT22;9356;52.202;20.950;2022-12-18T15:15:47;-0.60;99.90
18454;DHT22;9356;52.202;20.950;2022-12-18T15:16:52;-0.20;99.90
18454;DHT22;9356;52.202;20.950;2022-12-18T15:18:03;0.60;99.90
18454;DHT22;9356;52.202;20.950;2022-12-18T15:19:08;-0.60;99.40
18454;DHT22;9356;52.202;20.950;2022-12-18T15:20:11;2.00;99.90
18454;DHT22;9356;52.202;20.950;2022-12-18T15:21:21;-0.20;99.50
18454;DHT22;9356;52.202;20.950;2022-12-18T15:40:17;-0.70;98.90
18454;DHT22;9356;52.202;20.950;2022-12-18T15:47:10;0.10;99.40
18454;DHT22;9356;52.202;20.950;2022-12-18T15:52:41;-0.80;98.50
18454;DHT22;9356;52.202;20.950;2022-12-18T15:56:15;-0.40;99.20
18454;DHT22;9356;52.202;20.950;2022-12-18T16:04:11;-0.60;98.20
18454;DHT22;9356;52.202;20.950;2022-12-18T16:05:16;-0.10;99.90
18454;DHT22;9356;52.202;20.950;2022-12-18T16:06:20;0.10;99.90
18454;DHT22;9356;52.202;20.950;2022-12-18T16:08:29;0.30;99.90
18454;DHT22;9356;52.202;20.950;2022-12-18T16:09:35;0.30;99.90
18454;DHT22;9356;52.202;20.950;2022-12-18T16:11:43;0.30;99.90
18454;DHT22;9356;52.202;20.950;2022-12-18T16:13:52;0.40;99.90
18454;DHT22;9356;52.202;20.950;2022-12-18T16:14:55;0.90;99.90
18454;DHT22;9356;52.202;20.950;2022-12-18T16:17:09;0.50;98.30
18454;DHT22;9356;52.202;20.950;2022-12-18T16:19:18;0.40;97.00
18454;DHT22;9356;52.202;20.950;2022-12-18T16:20:26;0.70;97.10
18454;DHT22;9356;52.202;20.950;2022-12-18T16:21:30;0.70;97.00
18454;DHT22;9356;52.202;20.950;2022-12-18T16:22:35;0.70;96.90
18454;DHT22;9356;52.202;20.950;2022-12-18T16:23:39;0.80;97.10
18454;DHT22;9356;52.202;20.950;2022-12-18T16:24:44;0.40;97.00
18454;DHT22;9356;52.202;20.950;2022-12-18T16:25:49;3.20;99.60
18454;DHT22;9356;52.202;20.950;2022-12-18T16:26:58;0.80;99.90
18454;DHT22;9356;52.202;20.950;2022-12-18T16:28:01;1.30;99.90
18454;DHT22;9356;52.202;20.950;2022-12-18T16:29:06;0.20;99.90
18454;DHT22;9356;52.202;20.950;2022-12-18T16:30:13;1.00;99.90
18454;DHT22;9356;52.202;20.950;2022-12-18T16:31:17;1.00;98.30
18454;DHT22;9356;52.202;20.950;2022-12-18T16:32:22;1.20;99.30
18454;DHT22;9356;52.202;20.950;2022-12-18T16:33:26;1.20;99.50
18454;DHT22;9356;52.202;20.950;2022-12-18T16:34:33;1.10;98.70
18454;DHT22;9356;52.202;20.950;2022-12-18T16:35:37;-2.10;96.90
18454;DHT22;9356;52.202;20.950;2022-12-18T16:36:44;1.70;97.60
18454;DHT22;9356;52.202;20.950;2022-12-18T16:37:48;1.10;98.50
18454;DHT22;9356;52.202;20.950;2022-12-18T16:38:51;1.20;99.00
18454;DHT22;9356;52.202;20.950;2022-12-18T16:39:56;-1.50;97.90
18454;DHT22;9356;52.202;20.950;2022-12-18T16:41:00;3.10;99.80
18454;DHT22;9356;52.202;20.950;2022-12-18T16:42:21;0.90;97.90
18454;DHT22;9356;52.202;20.950;2022-12-18T16:43:25;0.80;97.20
18454;DHT22;9356;52.202;20.950;2022-12-18T16:44:27;-1.70;96.80
18454;DHT22;9356;52.202;20.950;2022-12-18T16:45:31;0.80;97.50
18454;DHT22;9356;52.202;20.950;2022-12-18T16:46:36;0.60;96.80
18454;DHT22;9356;52.202;20.950;2022-12-18T16:47:44;0.70;98.20
18454;DHT22;9356;52.202;20.950;2022-12-18T16:48:48;0.80;98.70
18454;DHT22;9356;52.202;20.950;2022-12-18T16:49:51;0.80;98.60
18454;DHT22;9356;52.202;20.950;2022-12-18T16:51:01;1.00;99.90
18454;DHT22;9356;52.202;20.950;2022-12-18T16:52:09;1.00;99.90
18454;DHT22;9356;52.202;20.950;2022-12-18T16:53:13;1.00;99.20
18454;DHT22;9356;52.202;20.950;2022-12-18T16:54:17;1.00;98.90
18454;DHT22;9356;52.202;20.950;2022-12-18T16:55:22;1.00;99.70
18454;DHT22;9356;52.202;20.950;2022-12-18T16:56:26;1.10;99.40
18454;DHT22;9356;52.202;20.950;2022-12-18T16:57:29;1.20;97.80
18454;DHT22;9356;52.202;20.950;2022-12-18T16:58:37;1.10;96.90
18454;DHT22;9356;52.202;20.950;2022-12-18T16:59:43;1.10;96.90
18454;DHT22;9356;52.202;20.950;2022-12-18T17:00:48;1.00;97.20
18454;DHT22;9356;52.202;20.950;2022-12-18T17:01:51;1.00;97.40
18454;DHT22;9356;52.202;20.950;2022-12-18T17:02:55;0.90;97.10
18454;DHT22;9356;52.202;20.950;2022-12-18T17:04:01;1.00;98.40
18454;DHT22;9356;52.202;20.950;2022-12-18T17:05:06;0.90;97.50
18454;DHT22;9356;52.202;20.950;2022-12-18T17:06:13;0.00;97.50
18454;DHT22;9356;52.202;20.950;2022-12-18T17:07:16;0.00;97.90
18454;DHT22;9356;52.202;20.950;2022-12-18T17:08:19;0.90;97.20
18454;DHT22;9356;52.202;20.950;2022-12-18T17:09:22;2.70;97.50
18454;DHT22;9356;52.202;20.950;2022-12-18T17:10:34;0.20;97.80
18454;DHT22;9356;52.202;20.950;2022-12-18T17:11:41;3.00;98.50
18454;DHT22;9356;52.202;20.950;2022-12-18T17:12:45;2.40;97.80
18454;DHT22;9356;52.202;20.950;2022-12-18T17:13:49;0.70;97.50
18454;DHT22;9356;52.202;20.950;2022-12-18T17:14:54;0.90;98.40
18454;DHT22;9356;52.202;20.950;2022-12-18T17:16:02;0.90;97.90
18454;DHT22;9356;52.202;20.950;2022-12-18T17:17:05;0.80;98.50
18454;DHT22;9356;52.202;20.950;2022-12-18T17:18:22;2.20;98.30
18454;DHT22;9356;52.202;20.950;2022-12-18T17:19:28;0.40;97.00
18454;DHT22;9356;52.202;20.950;2022-12-18T17:20:33;0.30;96.70
18454;DHT22;9356;52.202;20.950;2022-12-18T17:21:37;0.00;96.70
18454;DHT22;9356;52.202;20.950;2022-12-18T17:22:43;-0.30;96.60
18454;DHT22;9356;52.202;20.950;2022-12-18T17:23:52;-0.40;97.20
18454;DHT22;9356;52.202;20.950;2022-12-18T17:24:57;-0.60;97.40
18454;DHT22;9356;52.202;20.950;2022-12-18T17:26:03;-0.80;97.60
18454;DHT22;9356;52.202;20.950;2022-12-18T17:27:08;-0.80;97.70
18454;DHT22;9356;52.202;20.950;2022-12-18T17:28:12;-1.00;97.80
18454;DHT22;9356;52.202;20.950;2022-12-18T17:29:17;-1.10;98.00
18454;DHT22;9356;52.202;20.950;2022-12-18T17:30:22;-1.20;98.00
18454;DHT22;9356;52.202;20.950;2022-12-18T17:31:28;-0.20;98.50
18454;DHT22;9356;52.202;20.950;2022-12-18T17:32:31;-1.30;98.40
18454;DHT22;9356;52.202;20.950;2022-12-18T17:33:36;-1.60;98.60
18454;DHT22;9356;52.202;20.950;2022-12-18T17:34:41;-1.60;98.70
18454;DHT22;9356;52.202;20.950;2022-12-18T17:35:46;-1.80;98.80
18454;DHT22;9356;52.202;20.950;2022-12-18T17:36:53;-1.80;99.30
18454;DHT22;9356;52.202;20.950;2022-12-18T17:37:57;-1.90;99.30
18454;DHT22;9356;52.202;20.950;2022-12-18T17:39:02;-2.00;99.40
18454;DHT22;9356;52.202;20.950;2022-12-18T17:40:08;-1.90;99.40
18454;DHT22;9356;52.202;20.950;2022-12-18T17:41:12;-2.00;99.80
18454;DHT22;9356;52.202;20.950;2022-12-18T17:42:17;-2.10;99.80
18454;DHT22;9356;52.202;20.950;2022-12-18T17:43:26;-2.20;99.90
18454;DHT22;9356;52.202;20.950;2022-12-18T17:44:35;-2.20;99.90
18454;DHT22;9356;52.202;20.950;2022-12-18T17:45:39;-2.30;99.90
18454;DHT22;9356;52.202;20.950;2022-12-18T17:46:44;-2.30;99.90
18454;DHT22;9356;52.202;20.950;2022-12-18T17:47:48;-1.90;99.90
18454;DHT22;9356;52.202;20.950;2022-12-18T17:49:02;-2.30;99.90
18454;DHT22;9356;52.202;20.950;2022-12-18T17:50:12;-2.40;99.90
18454;DHT22;9356;52.202;20.950;2022-12-18T17:51:16;-2.30;99.90
18454;DHT22;9356;52.202;20.950;2022-12-18T17:52:19;-2.30;99.90
18454;DHT22;9356;52.202;20.950;2022-12-18T17:53:24;-2.40;99.90
18454;DHT22;9356;52.202;20.950;2022-12-18T17:54:27;-2.40;99.90
18454;DHT22;9356;52.202;20.950;2022-12-18T17:55:32;-2.40;99.90
18454;DHT22;9356;52.202;20.950;2022-12-18T17:56:37;-2.50;99.90
18454;DHT22;9356;52.202;20.950;2022-12-18T17:57:42;-1.20;99.90
18454;DHT22;9356;52.202;20.950;2022-12-18T17:58:45;0.40;99.90
18454;DHT22;9356;52.202;20.950;2022-12-18T17:59:51;-2.50;99.90
18454;DHT22;9356;52.202;20.950;2022-12-18T18:00:56;-2.50;99.90
18454;DHT22;9356;52.202;20.950;2022-12-18T18:01:59;-2.50;99.90
18454;DHT22;9356;52.202;20.950;2022-12-18T18:03:04;-2.40;99.90
18454;DHT22;9356;52.202;20.950;2022-12-18T18:04:08;-0.60;99.90
18454;DHT22;9356;52.202;20.950;2022-12-18T18:05:13;-2.00;99.90
18454;DHT22;9356;52.202;20.950;2022-12-18T18:06:19;-2.50;99.90
18454;DHT22;9356;52.202;20.950;2022-12-18T18:07:23;-1.80;99.90
18454;DHT22;9356;52.202;20.950;2022-12-18T18:08:28;-2.60;99.90
18454;DHT22;9356;52.202;20.950;2022-12-18T18:09:31;-2.60;99.90
18454;DHT22;9356;52.202;20.950;2022-12-18T18:10:36;-2.70;99.90
18454;DHT22;9356;52.202;20.950;2022-12-18T18:11:45;-3.30;99.90
18454;DHT22;9356;52.202;20.950;2022-12-18T18:13:18;-2.70;99.90
18454;DHT22;9356;52.202;20.950;2022-12-18T18:14:47;-1.90;99.90
18454;DHT22;9356;52.202;20.950;2022-12-18T18:15:56;-2.90;99.90
18454;DHT22;9356;52.202;20.950;2022-12-18T18:17:00;-2.90;99.90
18454;DHT22;9356;52.202;20.950;2022-12-18T18:18:06;-2.20;99.90
18454;DHT22;9356;52.202;20.950;2022-12-18T18:19:18;-2.40;99.90
18454;DHT22;9356;52.202;20.950;2022-12-18T18:20:22;-1.90;99.90
18454;DHT22;9356;52.202;20.950;2022-12-18T18:21:25;-3.10;99.90
18454;DHT22;9356;52.202;20.950;2022-12-18T18:22:29;-3.00;99.90
18454;DHT22;9356;52.202;20.950;2022-12-18T18:23:34;-3.00;99.90